createdAt,value
2023-05-01T00:01:00.277Z,79.76
2023-05-01T00:03:28.070Z,82.42
2023-05-01T00:06:04.954Z,85.44
2023-05-01T00:08:32.730Z,87.05
2023-05-01T00:11:04.887Z,87.37
2023-05-01T00:13:32.845Z,87.10
2023-05-01T00:16:00.019Z,87.97
2023-05-01T00:18:29.706Z,88.18
2023-05-01T00:20:56.982Z,86.85
2023-05-01T00:23:24.149Z,87.60
2023-05-01T00:25:51.397Z,88.22
2023-05-01T00:28:19.670Z,88.42
2023-05-01T00:30:47.197Z,90.30
2023-05-01T00:33:15.554Z,90.71
2023-05-01T00:35:46.564Z,91.01
2023-05-01T00:38:13.791Z,93.25
2023-05-01T00:40:47.833Z,94.20
2023-05-01T00:43:15.147Z,92.60
2023-05-01T00:45:46.180Z,93.97
2023-05-01T00:48:14.840Z,95.25
2023-05-01T00:50:43.407Z,95.22
2023-05-01T00:53:12.384Z,97.31
2023-05-01T00:55:42.832Z,98.56
2023-05-01T00:58:12.265Z,100.00
2023-05-01T01:00:39.743Z,100.00
2023-05-01T01:03:07.683Z,100.00
2023-05-01T01:05:42.082Z,100.00
2023-05-01T01:08:33.762Z,100.00
2023-05-01T01:11:34.277Z,100.00
2023-05-01T01:14:38.940Z,100.00
2023-05-01T01:17:23.334Z,100.00
2023-05-01T01:20:04.321Z,100.00
2023-05-01T01:22:35.395Z,100.00
2023-05-01T01:25:48.592Z,100.00
2023-05-01T01:28:43.295Z,100.00
2023-05-01T01:32:05.802Z,100.00
2023-05-01T01:34:38.942Z,100.00
2023-05-01T01:37:19.755Z,100.00
2023-05-01T01:39:55.409Z,100.00
2023-05-01T01:42:30.644Z,100.00
2023-05-01T01:45:05.203Z,100.00
2023-05-01T01:47:34.829Z,100.00
2023-05-01T01:50:06.827Z,100.00
2023-05-01T01:52:38.387Z,100.00
2023-05-01T01:55:13.749Z,100.00
2023-05-01T01:57:44.947Z,100.00
2023-05-01T02:00:13.928Z,100.00
2023-05-01T02:02:45.064Z,100.00
2023-05-01T02:05:16.628Z,100.00
2023-05-01T02:07:48.718Z,100.00
2023-05-01T02:10:19.004Z,100.00
2023-05-01T02:12:51.077Z,100.00
2023-05-01T02:15:19.678Z,100.00
2023-05-01T02:17:47.946Z,100.00
2023-05-01T02:20:16.508Z,100.00
2023-05-01T02:22:46.460Z,100.00
2023-05-01T02:25:16.781Z,100.00
2023-05-01T02:28:09.064Z,100.00
2023-05-01T02:30:36.573Z,100.00
2023-05-01T02:33:04.285Z,100.00
2023-05-01T02:35:32.775Z,100.00
2023-05-01T02:38:00.038Z,100.00
2023-05-01T02:40:27.878Z,100.00
2023-05-01T02:42:57.214Z,100.00
2023-05-01T02:45:26.084Z,100.00
2023-05-01T02:48:00.094Z,100.00
2023-05-01T02:50:27.967Z,100.00
2023-05-01T02:52:56.586Z,100.00
2023-05-01T02:55:53.671Z,100.00
2023-05-01T02:58:21.256Z,100.00
2023-05-01T03:00:51.784Z,100.00
2023-05-01T03:03:20.396Z,100.00
2023-05-01T03:05:48.123Z,100.00
2023-05-01T03:08:15.450Z,100.00
2023-05-01T03:10:43.432Z,100.00
2023-05-01T03:13:11.825Z,100.00
2023-05-01T03:15:39.763Z,100.00
2023-05-01T03:18:07.218Z,100.00
2023-05-01T03:20:34.506Z,100.00
2023-05-01T03:23:02.612Z,100.00
2023-05-01T03:25:30.409Z,100.00
2023-05-01T03:27:57.628Z,100.00
2023-05-01T03:30:25.326Z,100.00
2023-05-01T03:32:55.289Z,100.00
2023-05-01T03:35:29.332Z,100.00
2023-05-01T03:37:57.021Z,100.00
2023-05-01T03:40:43.140Z,100.00
2023-05-01T03:43:42.856Z,100.00
2023-05-01T03:46:19.327Z,100.00
2023-05-01T03:48:46.889Z,100.00
2023-05-01T03:51:17.217Z,100.00
2023-05-01T03:53:45.498Z,100.00
2023-05-01T03:56:12.891Z,100.00
2023-05-01T03:58:40.267Z,100.00
2023-05-01T04:01:07.526Z,100.00
2023-05-01T04:03:39.272Z,99.86
2023-05-01T04:06:06.831Z,98.56
2023-05-01T04:08:34.484Z,96.75
2023-05-01T04:11:01.800Z,92.70
2023-05-01T04:13:29.017Z,94.00
2023-05-01T04:15:57.983Z,89.79
2023-05-01T04:18:26.866Z,87.36
2023-05-01T04:20:59.077Z,88.18
2023-05-01T04:23:27.822Z,85.65
2023-05-01T04:25:58.368Z,78.84
2023-05-01T04:28:26.548Z,80.65
2023-05-01T04:30:54.053Z,76.12
2023-05-01T04:33:21.770Z,73.97
2023-05-01T04:35:50.194Z,68.04
2023-05-01T04:38:17.566Z,67.67
2023-05-01T04:40:45.561Z,64.97
2023-05-01T04:43:13.379Z,63.01
2023-05-01T04:45:41.389Z,63.78
2023-05-01T04:48:08.899Z,60.44
2023-05-01T04:50:36.204Z,58.94
2023-05-01T04:53:03.394Z,56.80
2023-05-01T04:55:31.344Z,58.43
2023-05-01T04:58:09.930Z,53.85
2023-05-01T05:00:37.235Z,51.95
2023-05-01T05:03:07.310Z,54.53
2023-05-01T05:05:35.384Z,53.61
2023-05-01T05:08:04.726Z,54.26
2023-05-01T05:10:36.451Z,53.96
2023-05-01T05:13:23.942Z,51.41
2023-05-01T05:15:59.829Z,50.86
2023-05-01T05:18:27.997Z,47.90
2023-05-01T05:20:56.364Z,45.23
2023-05-01T05:23:23.678Z,44.97
2023-05-01T05:25:51.033Z,43.11
2023-05-01T05:28:20.111Z,43.50
2023-05-01T05:30:47.915Z,41.43
2023-05-01T05:33:17.592Z,40.79
2023-05-01T05:35:45.601Z,39.44
2023-05-01T05:38:13.810Z,37.56
2023-05-01T05:40:42.296Z,37.24
2023-05-01T05:43:10.861Z,36.79
2023-05-01T05:45:38.512Z,36.83
2023-05-01T05:48:06.146Z,37.07
2023-05-01T05:50:36.802Z,37.03
2023-05-01T05:53:04.245Z,35.77
2023-05-01T05:55:31.808Z,33.39
2023-05-01T05:58:03.873Z,34.04
2023-05-01T06:00:32.011Z,33.70
2023-05-01T06:03:04.209Z,33.02
2023-05-01T06:05:32.610Z,32.20
2023-05-01T06:07:59.924Z,32.73
2023-05-01T06:10:27.236Z,31.49
2023-05-01T06:13:01.880Z,29.91
2023-05-01T06:15:43.971Z,31.17
2023-05-01T06:18:12.048Z,30.43
2023-05-01T06:20:39.929Z,30.85
2023-05-01T06:23:09.629Z,30.84
2023-05-01T06:25:44.861Z,30.59
2023-05-01T06:28:12.091Z,29.89
2023-05-01T06:30:39.381Z,31.79
2023-05-01T06:33:06.842Z,28.47
2023-05-01T06:35:34.383Z,27.78
2023-05-01T06:38:02.842Z,27.88
2023-05-01T06:40:31.709Z,28.75
2023-05-01T06:42:58.969Z,27.32
2023-05-01T06:45:28.971Z,27.42
2023-05-01T06:47:56.374Z,26.56
2023-05-01T06:50:23.776Z,25.49
2023-05-01T06:52:50.961Z,23.94
2023-05-01T06:55:18.388Z,25.44
2023-05-01T06:57:46.098Z,23.49
2023-05-01T07:00:14.534Z,24.34
2023-05-01T07:02:41.989Z,23.69
2023-05-01T07:05:09.646Z,25.35
2023-05-01T07:07:38.940Z,25.03
2023-05-01T07:10:10.046Z,25.36
2023-05-01T07:12:37.558Z,23.06
2023-05-01T07:15:05.805Z,24.98
2023-05-01T07:17:33.142Z,24.15
2023-05-01T07:20:01.199Z,23.08
2023-05-01T07:22:29.306Z,22.28
2023-05-01T07:24:56.800Z,23.85
2023-05-01T07:27:24.853Z,23.02
2023-05-01T07:29:52.360Z,20.84
2023-05-01T07:32:19.686Z,21.01
2023-05-01T07:34:46.940Z,21.56
2023-05-01T07:37:14.168Z,20.88
2023-05-01T07:39:41.464Z,20.39
2023-05-01T07:42:08.645Z,20.37
2023-05-01T07:44:36.040Z,20.20
2023-05-01T07:47:04.658Z,19.45
2023-05-01T07:49:40.001Z,19.99
2023-05-01T07:52:07.681Z,21.09
2023-05-01T07:54:35.133Z,19.96
2023-05-01T07:57:02.988Z,19.27
2023-05-01T07:59:30.454Z,18.37
2023-05-01T08:01:57.855Z,17.65
2023-05-01T08:04:25.134Z,19.87
2023-05-01T08:06:52.974Z,20.50
2023-05-01T08:09:20.300Z,17.68
2023-05-01T08:11:47.564Z,18.48
2023-05-01T08:14:17.665Z,19.48
2023-05-01T08:16:45.192Z,19.00
2023-05-01T08:19:12.587Z,18.78
2023-05-01T08:21:39.966Z,18.88
2023-05-01T08:24:10.877Z,17.92
2023-05-01T08:26:38.582Z,17.61
2023-05-01T08:29:05.754Z,18.39
2023-05-01T08:31:33.186Z,18.80
2023-05-01T08:34:00.495Z,18.15
2023-05-01T08:36:28.199Z,19.12
2023-05-01T08:38:55.533Z,17.85
2023-05-01T08:41:23.953Z,17.83
2023-05-01T08:43:51.364Z,17.20
2023-05-01T08:46:45.559Z,18.13
2023-05-01T08:49:17.134Z,17.98
2023-05-01T08:51:50.357Z,18.02
2023-05-01T08:54:19.909Z,18.74
2023-05-01T08:56:53.566Z,17.43
2023-05-01T08:59:23.960Z,18.76
2023-05-01T09:01:52.401Z,18.45
2023-05-01T09:04:20.373Z,17.78
2023-05-01T09:06:47.763Z,16.93
2023-05-01T09:09:15.096Z,17.56
2023-05-01T09:11:45.149Z,18.31
2023-05-01T09:14:12.579Z,18.58
2023-05-01T09:16:39.947Z,17.51
2023-05-01T09:19:07.319Z,17.00
2023-05-01T09:21:34.792Z,18.63
2023-05-01T09:24:02.876Z,17.78
2023-05-01T09:26:30.552Z,17.08
2023-05-01T09:28:58.455Z,17.21
2023-05-01T09:31:29.182Z,18.12
2023-05-01T09:34:05.220Z,17.78
2023-05-01T09:36:34.629Z,18.13
2023-05-01T09:39:02.681Z,17.94
2023-05-01T09:41:34.054Z,17.60
2023-05-01T09:44:01.906Z,18.73
2023-05-01T09:46:40.856Z,19.49
2023-05-01T09:49:08.207Z,20.91
2023-05-01T09:51:35.660Z,18.44
2023-05-01T09:54:05.275Z,19.29
2023-05-01T09:56:34.397Z,20.42
2023-05-01T09:59:21.630Z,19.74
2023-05-01T10:01:50.637Z,20.64
2023-05-01T10:04:18.304Z,19.83
2023-05-01T10:06:46.058Z,21.03
2023-05-01T10:09:29.344Z,19.61
2023-05-01T10:11:57.940Z,19.63
2023-05-01T10:14:27.207Z,18.42
2023-05-01T10:16:54.969Z,19.46
2023-05-01T10:19:22.516Z,20.52
2023-05-01T10:21:50.003Z,19.52
2023-05-01T10:24:18.814Z,21.27
2023-05-01T10:26:49.260Z,19.89
2023-05-01T10:29:18.307Z,19.30
2023-05-01T10:31:45.585Z,21.12
2023-05-01T10:34:18.259Z,21.61
2023-05-01T10:36:55.067Z,22.78
2023-05-01T10:39:38.192Z,21.63
2023-05-01T10:42:05.446Z,24.34
2023-05-01T10:44:35.098Z,23.93
2023-05-01T10:47:25.467Z,23.67
2023-05-01T10:50:22.315Z,22.51
2023-05-01T10:53:11.938Z,24.05
2023-05-01T10:55:45.002Z,23.96
2023-05-01T10:58:14.536Z,23.72
2023-05-01T11:00:42.342Z,22.68
2023-05-01T11:03:21.809Z,22.44
2023-05-01T11:06:01.314Z,22.38
2023-05-01T11:08:39.218Z,24.70
2023-05-01T11:11:21.870Z,25.33
2023-05-01T11:14:04.248Z,23.13
2023-05-01T11:16:51.847Z,24.21
2023-05-01T11:19:22.294Z,25.21
2023-05-01T11:21:50.851Z,26.53
2023-05-01T11:24:18.972Z,26.08
2023-05-01T11:26:47.480Z,24.92
2023-05-01T11:29:14.755Z,26.46
2023-05-01T11:31:42.303Z,26.20
2023-05-01T11:34:10.063Z,24.90
2023-05-01T11:36:51.948Z,27.95
2023-05-01T11:39:20.492Z,26.60
2023-05-01T11:41:48.039Z,27.26
2023-05-01T11:44:18.997Z,28.47
2023-05-01T11:46:46.293Z,29.92
2023-05-01T11:49:13.586Z,31.73
2023-05-01T11:51:40.868Z,30.95
2023-05-01T11:54:11.798Z,31.14
2023-05-01T11:56:41.265Z,30.91
2023-05-01T11:59:17.045Z,30.70
2023-05-01T12:01:46.432Z,30.18
2023-05-01T12:04:23.940Z,33.79
2023-05-01T12:06:51.769Z,33.74
2023-05-01T12:09:29.978Z,32.79
2023-05-01T12:11:59.826Z,33.08
2023-05-01T12:14:27.447Z,35.86
2023-05-01T12:16:55.696Z,36.15
2023-05-01T12:19:23.947Z,33.77
2023-05-01T12:22:07.068Z,33.86
2023-05-01T12:24:34.605Z,35.57
2023-05-01T12:27:03.604Z,32.77
2023-05-01T12:29:41.666Z,34.75
2023-05-01T12:32:09.591Z,37.67
2023-05-01T12:34:37.052Z,34.44
2023-05-01T12:37:05.396Z,33.75
2023-05-01T12:39:42.470Z,34.76
2023-05-01T12:42:15.278Z,35.57
2023-05-01T12:44:44.073Z,35.54
2023-05-01T12:47:13.087Z,35.94
2023-05-01T12:49:41.585Z,36.28
2023-05-01T12:52:09.570Z,35.48
2023-05-01T12:54:44.049Z,37.23
2023-05-01T12:57:16.790Z,34.62
2023-05-01T12:59:49.604Z,37.99
2023-05-01T13:02:18.541Z,36.80
2023-05-01T13:04:49.388Z,35.33
2023-05-01T13:07:19.554Z,37.77
2023-05-01T13:10:00.441Z,35.45
2023-05-01T13:12:30.798Z,36.80
2023-05-01T13:14:59.538Z,35.31
2023-05-01T13:17:31.528Z,35.35
2023-05-01T13:20:05.050Z,33.25
2023-05-01T13:22:38.254Z,36.52
2023-05-01T13:25:20.700Z,34.89
2023-05-01T13:27:53.393Z,35.88
2023-05-01T13:30:31.383Z,38.19
2023-05-01T13:32:59.028Z,35.42
2023-05-01T13:35:27.471Z,34.86
2023-05-01T13:37:54.817Z,35.81
2023-05-01T13:40:24.453Z,37.87
2023-05-01T13:42:54.119Z,36.68
2023-05-01T13:45:21.689Z,35.42
2023-05-01T13:47:52.058Z,36.84
2023-05-01T13:50:19.722Z,34.84
2023-05-01T13:52:47.030Z,35.88
2023-05-01T13:55:14.936Z,35.84
2023-05-01T13:57:43.263Z,36.65
2023-05-01T14:00:19.631Z,35.46
2023-05-01T14:02:49.256Z,35.83
2023-05-01T14:05:20.662Z,35.35
2023-05-01T14:07:58.917Z,35.17
2023-05-01T14:10:28.907Z,36.38
2023-05-01T14:13:00.441Z,35.16
2023-05-01T14:15:28.865Z,35.13
2023-05-01T14:17:56.213Z,36.78
2023-05-01T14:20:25.957Z,36.11
2023-05-01T14:22:53.708Z,35.30
2023-05-01T14:25:30.777Z,37.84
2023-05-01T14:28:01.163Z,35.30
2023-05-01T14:30:34.204Z,36.50
2023-05-01T14:33:09.629Z,35.62
2023-05-01T14:35:44.376Z,38.92
2023-05-01T14:38:14.900Z,39.65
2023-05-01T14:40:42.745Z,39.07
2023-05-01T14:43:24.016Z,37.08
2023-05-01T14:45:51.510Z,37.94
2023-05-01T14:48:29.656Z,37.63
2023-05-01T14:50:58.433Z,39.36
2023-05-01T14:53:27.732Z,38.61
2023-05-01T14:55:54.970Z,35.99
2023-05-01T14:58:22.177Z,36.33
2023-05-01T15:00:49.505Z,35.69
2023-05-01T15:03:16.904Z,36.81
2023-05-01T15:05:46.223Z,36.25
2023-05-01T15:08:13.571Z,36.93
2023-05-01T15:10:41.813Z,37.31
2023-05-01T15:13:09.419Z,40.35
2023-05-01T15:15:36.694Z,39.39
2023-05-01T15:18:04.164Z,38.74
2023-05-01T15:20:32.039Z,39.92
2023-05-01T15:22:59.226Z,38.90
2023-05-01T15:25:26.551Z,38.79
2023-05-01T15:27:53.951Z,37.51
2023-05-01T15:30:21.413Z,36.41
2023-05-01T15:32:48.909Z,36.98
2023-05-01T15:35:17.409Z,37.44
2023-05-01T15:37:44.677Z,37.31
2023-05-01T15:40:12.345Z,37.16
2023-05-01T15:42:39.920Z,37.40
2023-05-01T15:45:08.230Z,36.45
2023-05-01T15:47:35.544Z,37.85
2023-05-01T15:50:03.014Z,36.41
2023-05-01T15:52:30.477Z,38.33
2023-05-01T15:54:57.683Z,39.10
2023-05-01T15:57:25.128Z,38.22
2023-05-01T15:59:54.113Z,37.39
2023-05-01T16:02:21.866Z,36.82
2023-05-01T16:04:49.561Z,37.85
2023-05-01T16:07:16.823Z,38.13
2023-05-01T16:09:44.092Z,39.39
2023-05-01T16:12:11.781Z,37.08
2023-05-01T16:14:42.441Z,40.29
2023-05-01T16:17:10.122Z,37.95
2023-05-01T16:19:38.540Z,39.13
2023-05-01T16:22:07.211Z,41.99
2023-05-01T16:24:34.948Z,39.08
2023-05-01T16:27:03.341Z,38.71
2023-05-01T16:29:33.803Z,37.48
2023-05-01T16:32:04.046Z,38.17
2023-05-01T16:34:31.381Z,39.26
2023-05-01T16:36:58.529Z,39.79
2023-05-01T16:39:25.912Z,37.72
2023-05-01T16:41:54.866Z,38.33
2023-05-01T16:44:23.286Z,39.35
2023-05-01T16:46:56.534Z,39.85
2023-05-01T16:49:29.586Z,39.22
2023-05-01T16:51:58.424Z,40.06
2023-05-01T16:54:35.480Z,39.93
2023-05-01T16:57:03.811Z,41.88
2023-05-01T16:59:31.689Z,41.63
2023-05-01T17:01:59.108Z,43.17
2023-05-01T17:04:26.946Z,45.89
2023-05-01T17:06:56.132Z,42.17
2023-05-01T17:09:23.625Z,41.09
2023-05-01T17:11:59.118Z,41.21
2023-05-01T17:14:28.891Z,43.19
2023-05-01T17:16:58.870Z,42.80
2023-05-01T17:19:26.653Z,45.36
2023-05-01T17:21:54.126Z,43.96
2023-05-01T17:24:22.582Z,44.79
2023-05-01T17:26:49.943Z,48.25
2023-05-01T17:29:17.183Z,51.04
2023-05-01T17:31:44.643Z,47.05
2023-05-01T17:34:12.011Z,48.60
2023-05-01T17:36:39.327Z,45.63
2023-05-01T17:39:06.755Z,46.82
2023-05-01T17:41:34.008Z,44.63
2023-05-01T17:44:01.459Z,45.19
2023-05-01T17:46:28.983Z,47.78
2023-05-01T17:48:57.445Z,44.72
2023-05-01T17:51:24.821Z,45.19
2023-05-01T17:53:52.704Z,45.51
2023-05-01T17:56:21.972Z,44.48
2023-05-01T17:58:49.587Z,46.78
2023-05-01T18:01:17.012Z,45.89
2023-05-01T18:03:45.194Z,44.89
2023-05-01T18:06:12.616Z,46.89
2023-05-01T18:08:39.783Z,46.64
2023-05-01T18:11:08.117Z,45.68
2023-05-01T18:13:38.330Z,46.93
2023-05-01T18:16:06.015Z,47.21
2023-05-01T18:18:33.384Z,48.25
2023-05-01T18:21:00.916Z,46.77
2023-05-01T18:23:28.463Z,53.60
2023-05-01T18:25:56.184Z,54.48
2023-05-01T18:28:23.484Z,53.95
2023-05-01T18:30:50.933Z,51.97
2023-05-01T18:33:18.650Z,51.03
2023-05-01T18:35:45.988Z,55.04
2023-05-01T18:38:13.308Z,55.90
2023-05-01T18:40:40.688Z,57.67
2023-05-01T18:43:08.170Z,60.05
2023-05-01T18:45:35.494Z,61.52
2023-05-01T18:48:03.873Z,60.92
2023-05-01T18:50:31.463Z,60.61
2023-05-01T18:52:59.286Z,61.76
2023-05-01T18:55:26.945Z,62.25
2023-05-01T18:57:54.228Z,62.20
2023-05-01T19:00:21.731Z,62.58
2023-05-01T19:02:52.108Z,61.28
2023-05-01T19:05:20.012Z,62.00
2023-05-01T19:07:47.475Z,61.35
2023-05-01T19:10:15.047Z,59.78
2023-05-01T19:12:42.504Z,62.30
2023-05-01T19:15:10.487Z,62.75
2023-05-01T19:17:37.964Z,64.42
2023-05-01T19:20:06.365Z,61.89
2023-05-01T19:22:33.848Z,63.68
2023-05-01T19:25:01.812Z,65.39
2023-05-01T19:27:29.395Z,66.02
2023-05-01T19:29:59.387Z,66.03
2023-05-01T19:32:28.759Z,69.04
2023-05-01T19:34:56.949Z,66.13
2023-05-01T19:37:24.313Z,65.16
2023-05-01T19:39:51.722Z,66.61
2023-05-01T19:42:19.185Z,65.25
2023-05-01T19:44:46.529Z,66.47
2023-05-01T19:47:13.989Z,65.23
2023-05-01T19:49:41.351Z,64.88
2023-05-01T19:52:09.143Z,64.64
2023-05-01T19:54:36.704Z,65.74
2023-05-01T19:57:04.619Z,66.57
2023-05-01T19:59:32.061Z,67.68
2023-05-01T20:02:01.046Z,67.49
2023-05-01T20:04:28.901Z,68.09
2023-05-01T20:06:56.402Z,67.88
2023-05-01T20:09:23.853Z,67.56
2023-05-01T20:11:51.384Z,67.93
2023-05-01T20:14:18.777Z,66.73
2023-05-01T20:16:46.633Z,66.37
2023-05-01T20:19:16.464Z,66.33
2023-05-01T20:21:43.957Z,65.95
2023-05-01T20:24:11.503Z,64.77
2023-05-01T20:26:38.792Z,64.79
2023-05-01T20:29:06.615Z,64.01
2023-05-01T20:31:34.734Z,66.19
2023-05-01T20:34:02.207Z,66.19
2023-05-01T20:36:29.644Z,64.65
2023-05-01T20:38:57.967Z,63.84
2023-05-01T20:41:26.614Z,61.61
2023-05-01T20:43:54.017Z,60.64
2023-05-01T20:46:23.019Z,61.58
2023-05-01T20:48:50.447Z,58.27
2023-05-01T20:51:18.091Z,58.83
2023-05-01T20:53:45.574Z,59.33
2023-05-01T20:56:13.115Z,57.11
2023-05-01T20:58:40.455Z,58.29
2023-05-01T21:01:08.288Z,60.13
2023-05-01T21:03:35.773Z,60.00
2023-05-01T21:06:03.157Z,59.32
2023-05-01T21:08:31.315Z,57.68
2023-05-01T21:10:58.582Z,57.55
2023-05-01T21:13:28.086Z,56.25
2023-05-01T21:15:55.499Z,57.78
2023-05-01T21:18:23.622Z,58.05
2023-05-01T21:20:51.120Z,59.18
2023-05-01T21:23:18.606Z,58.99
2023-05-01T21:25:45.986Z,63.80
2023-05-01T21:28:14.595Z,63.45
2023-05-01T21:30:42.049Z,64.62
2023-05-01T21:33:14.621Z,67.06
2023-05-01T21:35:44.882Z,66.61
2023-05-01T21:38:12.411Z,62.01
2023-05-01T21:40:46.164Z,61.84
2023-05-01T21:43:13.566Z,61.51
2023-05-01T21:45:44.421Z,64.45
2023-05-01T21:48:15.987Z,64.61
2023-05-01T21:50:43.551Z,63.01
2023-05-01T21:53:10.728Z,66.95
2023-05-01T21:55:39.432Z,68.12
2023-05-01T21:58:06.758Z,66.62
2023-05-01T22:00:34.211Z,69.07
2023-05-01T22:03:06.034Z,68.16
2023-05-01T22:05:34.540Z,70.18
2023-05-01T22:08:01.840Z,72.06
2023-05-01T22:10:29.752Z,70.61
2023-05-01T22:12:57.140Z,72.87
2023-05-01T22:15:24.531Z,73.59
2023-05-01T22:17:51.910Z,74.73
2023-05-01T22:20:19.222Z,73.47
2023-05-01T22:22:46.505Z,74.92
2023-05-01T22:25:13.867Z,74.29
2023-05-01T22:27:41.534Z,74.71
2023-05-01T22:30:09.339Z,75.75
2023-05-01T22:32:36.804Z,73.92
2023-05-01T22:35:05.115Z,74.99
2023-05-01T22:37:32.550Z,73.32
2023-05-01T22:39:59.831Z,75.63
2023-05-01T22:42:27.495Z,73.38
2023-05-01T22:44:54.813Z,74.31
2023-05-01T22:47:22.015Z,72.12
2023-05-01T22:49:49.283Z,74.77
2023-05-01T22:52:16.726Z,73.50
2023-05-01T22:54:43.941Z,75.94
2023-05-01T22:57:11.197Z,75.31
2023-05-01T22:59:40.467Z,75.18
2023-05-01T23:02:08.687Z,75.30
2023-05-01T23:04:36.080Z,73.70
2023-05-01T23:07:03.358Z,72.06
2023-05-01T23:09:33.788Z,71.85
2023-05-01T23:12:02.031Z,74.30
2023-05-01T23:14:29.272Z,72.55
2023-05-01T23:16:56.884Z,71.46
2023-05-01T23:19:25.330Z,70.94
2023-05-01T23:22:11.058Z,71.15
2023-05-01T23:24:49.360Z,74.92
2023-05-01T23:27:18.997Z,75.01
2023-05-01T23:29:58.694Z,77.70
2023-05-01T23:32:31.868Z,78.54
2023-05-01T23:35:19.540Z,80.29
2023-05-01T23:37:46.708Z,75.62
2023-05-01T23:40:13.988Z,77.80
2023-05-01T23:42:41.274Z,78.09
2023-05-01T23:45:09.524Z,75.78
2023-05-01T23:47:38.661Z,74.34
2023-05-01T23:50:07.343Z,73.55
2023-05-01T23:52:34.764Z,73.23
2023-05-01T23:55:02.252Z,77.80
2023-05-01T23:57:29.629Z,78.88
2023-05-01T23:59:56.956Z,77.24
